Time;durP1;ratioP1;P1;durP2;ratioP2;P2;SDS_P1;SDS_P2;PMS_P1;PMS_P2;Temp;Humidity;BMP_temperature;BMP_pressure;BME280_temperature;BME280_humidity;BME280_pressure;Samples;Min_cycle;Max_cycle;Signal;HPM_P1;HPM_P2
2024/02/13 00:02:10;;;;;;;15.82;7.13;;;3.30;99.90;;;;;;4962920;28;20062;-76
2024/02/13 00:04:36;;;;;;;16.02;7.88;;;3.20;99.90;;;;;;4929913;28;22786;-79
2024/02/13 00:07:03;;;;;;;17.17;8.48;;;3.20;99.90;;;;;;4929341;28;20050;-82
2024/02/13 00:09:29;;;;;;;15.57;8.48;;;3.20;99.90;;;;;;4961632;28;20418;-82
2024/02/13 00:11:56;;;;;;;18.50;8.77;;;3.30;99.90;;;;;;4931270;29;20039;-82
2024/02/13 00:14:22;;;;;;;14.52;8.57;;;3.20;99.90;;;;;;4961504;28;20042;-75
2024/02/13 00:16:48;;;;;;;12.80;8.32;;;3.20;99.90;;;;;;4961747;28;20046;-79
2024/02/13 00:19:15;;;;;;;17.13;8.82;;;3.20;99.90;;;;;;4961352;28;20043;-82
2024/02/13 00:21:43;;;;;;;15.38;8.90;;;3.20;99.90;;;;;;4962555;28;20046;-79
2024/02/13 00:24:09;;;;;;;15.65;8.68;;;3.30;99.90;;;;;;4945647;28;20039;-78
2024/02/13 00:26:36;;;;;;;11.35;7.90;;;3.30;99.90;;;;;;4960470;28;20727;-79
2024/02/13 00:29:03;;;;;;;13.50;8.02;;;3.30;99.90;;;;;;4961095;28;20513;-81
2024/02/13 00:31:29;;;;;;;15.73;9.30;;;3.30;99.90;;;;;;4960872;28;20031;-83
2024/02/13 00:34:19;;;;;;;9.90;7.70;;;3.30;99.90;;;;;;4929830;28;20058;-85
2024/02/13 00:36:49;;;;;;;9.63;6.50;;;3.30;99.90;;;;;;4961978;28;20031;-79
2024/02/13 00:39:15;;;;;;;9.90;7.00;;;3.30;99.90;;;;;;4945836;28;20251;-83
2024/02/13 00:41:42;;;;;;;13.73;8.15;;;3.30;99.90;;;;;;4925349;28;20038;-78
2024/02/13 00:44:08;;;;;;;12.57;7.82;;;3.20;99.90;;;;;;4943262;28;20051;-78
2024/02/13 00:46:34;;;;;;;12.55;7.82;;;3.20;99.90;;;;;;4946014;28;20039;-78
2024/02/13 00:49:03;;;;;;;12.90;6.82;;;3.20;99.90;;;;;;4940788;28;20035;-84
2024/02/13 00:51:30;;;;;;;17.88;8.82;;;3.20;99.90;;;;;;4944878;28;21436;-75
2024/02/13 00:53:56;;;;;;;13.63;8.48;;;3.20;99.90;;;;;;4960799;28;20034;-83
2024/02/13 00:56:23;;;;;;;19.42;11.30;;;3.20;99.90;;;;;;4946427;28;20511;-78
2024/02/13 00:58:49;;;;;;;16.13;10.80;;;3.20;99.90;;;;;;4928857;28;20054;-82
2024/02/13 01:01:15;;;;;;;16.90;11.45;;;3.20;99.90;;;;;;4962423;28;20035;-79
2024/02/13 01:03:42;;;;;;;18.85;10.43;;;3.30;99.90;;;;;;4962382;28;20042;-83
2024/02/13 01:06:08;;;;;;;20.88;11.20;;;3.20;99.90;;;;;;4962663;28;20529;-81
2024/02/13 01:08:36;;;;;;;13.52;9.07;;;3.20;99.90;;;;;;4966121;28;20050;-77
2024/02/13 01:11:03;;;;;;;19.52;10.75;;;3.20;99.90;;;;;;4966170;28;20372;-74
2024/02/13 01:13:31;;;;;;;16.40;9.57;;;3.20;99.90;;;;;;4965215;28;20043;-78
2024/02/13 01:15:58;;;;;;;15.65;9.77;;;3.20;99.90;;;;;;4948501;28;20054;-83
2024/02/13 01:18:26;;;;;;;13.30;9.93;;;3.10;99.90;;;;;;4961214;28;20054;-80
2024/02/13 01:20:52;;;;;;;19.00;12.10;;;3.10;99.90;;;;;;4961281;28;20043;-82
2024/02/13 01:23:18;;;;;;;17.77;10.45;;;3.10;99.90;;;;;;4944864;28;20402;-82
2024/02/13 01:25:46;;;;;;;20.42;14.10;;;3.00;99.90;;;;;;4960196;28;20043;-82
2024/02/13 01:28:12;;;;;;;23.90;15.07;;;3.00;99.90;;;;;;4977231;28;20495;-82
2024/02/13 01:30:39;;;;;;;23.38;15.43;;;3.00;99.90;;;;;;4929032;28;20046;-83
2024/02/13 01:33:05;;;;;;;24.90;16.13;;;3.00;99.90;;;;;;4960045;28;20036;-78
2024/02/13 01:35:31;;;;;;;31.58;18.05;;;3.10;99.90;;;;;;4961173;28;20035;-79
2024/02/13 01:37:58;;;;;;;25.38;18.30;;;3.00;99.90;;;;;;4927283;28;20035;-79
2024/02/13 01:40:24;;;;;;;29.98;20.70;;;3.10;99.90;;;;;;4942433;28;20558;-83
2024/02/13 01:42:50;;;;;;;28.02;19.50;;;3.10;99.90;;;;;;4960315;28;20410;-79
2024/02/13 01:45:17;;;;;;;29.88;19.88;;;3.10;99.90;;;;;;4958555;28;20487;-80
2024/02/13 01:47:55;;;;;;;30.75;21.40;;;3.10;99.90;;;;;;4943995;28;20035;-81
2024/02/13 01:50:22;;;;;;;34.53;24.42;;;3.10;99.90;;;;;;4959698;28;20035;-79
2024/02/13 01:52:51;;;;;;;33.08;23.35;;;3.10;99.90;;;;;;4959654;28;20091;-82
2024/02/13 01:55:20;;;;;;;36.83;25.23;;;3.10;99.90;;;;;;4942876;28;20042;-75
2024/02/13 01:57:49;;;;;;;29.52;21.88;;;3.10;99.90;;;;;;4960697;28;20047;-79
2024/02/13 02:00:16;;;;;;;31.27;22.30;;;3.10;99.90;;;;;;4930258;28;20108;-83
2024/02/13 02:02:45;;;;;;;35.22;24.08;;;3.10;99.90;;;;;;4929467;28;20058;-80
2024/02/13 02:05:13;;;;;;;38.58;25.40;;;3.10;99.90;;;;;;4960815;28;20039;-78
2024/02/13 02:07:48;;;;;;;36.22;23.13;;;3.10;99.90;;;;;;4944267;28;20050;-76
2024/02/13 02:10:14;;;;;;;36.53;26.05;;;3.10;99.90;;;;;;4930119;28;20047;-80
2024/02/13 02:12:41;;;;;;;32.80;24.52;;;3.10;99.90;;;;;;4960314;28;20457;-79
2024/02/13 02:15:10;;;;;;;38.15;25.17;;;3.10;99.90;;;;;;4964208;28;20035;-80
2024/02/13 02:17:39;;;;;;;41.05;27.13;;;3.10;99.90;;;;;;4963305;28;20043;-80
2024/02/13 02:20:07;;;;;;;38.58;23.85;;;3.10;99.90;;;;;;4947802;28;20035;-79
2024/02/13 02:22:34;;;;;;;37.05;25.55;;;3.10;99.90;;;;;;4936608;28;20031;-79
2024/02/13 02:25:00;;;;;;;37.63;27.52;;;3.10;99.90;;;;;;4963538;28;20032;-80
2024/02/13 02:27:35;;;;;;;36.75;26.05;;;3.10;99.90;;;;;;4934976;28;20471;-75
2024/02/13 02:30:01;;;;;;;37.45;27.17;;;3.10;99.90;;;;;;4978418;28;20035;-81
2024/02/13 02:32:28;;;;;;;41.08;26.13;;;3.00;99.90;;;;;;4946578;28;20402;-82
2024/02/13 02:34:55;;;;;;;40.83;28.20;;;3.10;99.90;;;;;;4932022;28;20059;-80
2024/02/13 02:37:22;;;;;;;40.65;27.60;;;3.00;99.90;;;;;;4931640;28;20443;-79
2024/02/13 02:39:48;;;;;;;30.83;24.02;;;3.00;99.90;;;;;;4932034;28;20339;-80
2024/02/13 02:42:15;;;;;;;41.67;28.35;;;3.00;99.90;;;;;;4948314;28;20039;-81
2024/02/13 02:44:41;;;;;;;44.78;30.00;;;3.10;99.90;;;;;;4945510;28;20050;-79
2024/02/13 02:47:08;;;;;;;39.90;28.52;;;3.10;99.90;;;;;;4980119;28;20541;-81
2024/02/13 02:49:34;;;;;;;48.95;37.05;;;3.10;99.90;;;;;;4962183;28;20077;-76
2024/02/13 02:52:01;;;;;;;54.67;35.25;;;3.10;99.90;;;;;;4964452;28;20042;-78
2024/02/13 02:54:28;;;;;;;48.55;33.15;;;3.10;99.90;;;;;;4962815;28;20031;-84
2024/02/13 02:56:54;;;;;;;54.38;37.00;;;3.10;99.90;;;;;;4948430;28;20050;-74
2024/02/13 02:59:20;;;;;;;43.72;32.53;;;3.20;99.90;;;;;;4932795;28;20074;-78
2024/02/13 03:01:47;;;;;;;50.95;35.28;;;3.20;99.90;;;;;;4981604;28;20066;-81
2024/02/13 03:04:13;;;;;;;58.25;38.20;;;3.20;99.90;;;;;;4936243;28;20054;-83
2024/02/13 03:06:40;;;;;;;43.42;32.13;;;3.20;99.90;;;;;;4950057;28;20395;-77
2024/02/13 03:09:08;;;;;;;56.65;36.85;;;3.20;99.90;;;;;;4960997;28;20395;-78
2024/02/13 03:11:34;;;;;;;44.58;31.98;;;3.20;99.90;;;;;;4949319;28;20051;-82
2024/02/13 03:14:01;;;;;;;50.17;35.00;;;3.30;99.90;;;;;;4932770;29;20062;-81
2024/02/13 03:16:29;;;;;;;49.35;35.05;;;3.30;99.90;;;;;;4962769;28;20038;-82
2024/02/13 03:18:56;;;;;;;46.33;33.28;;;3.30;99.90;;;;;;4947826;28;20047;-80
2024/02/13 03:21:22;;;;;;;54.63;36.90;;;3.30;99.90;;;;;;4944127;28;20134;-81
2024/02/13 03:23:48;;;;;;;45.95;33.22;;;3.30;99.90;;;;;;4947639;28;20043;-81
2024/02/13 03:26:15;;;;;;;47.80;33.42;;;3.30;99.90;;;;;;4948675;28;20399;-77
2024/02/13 03:29:02;;;;;;;48.17;34.92;;;3.30;99.90;;;;;;4957696;28;20039;-82
2024/02/13 03:31:28;;;;;;;53.28;36.67;;;3.30;99.90;;;;;;4961898;28;20035;-82
2024/02/13 03:33:55;;;;;;;45.22;32.83;;;3.30;99.90;;;;;;4960927;28;20034;-75
2024/02/13 03:36:22;;;;;;;50.47;35.35;;;3.30;99.90;;;;;;4932601;28;20034;-81
2024/02/13 03:38:48;;;;;;;52.92;37.58;;;3.30;99.90;;;;;;4978565;28;20043;-81
2024/02/13 03:41:14;;;;;;;49.22;35.45;;;3.30;99.90;;;;;;4948086;28;20476;-80
2024/02/13 03:43:43;;;;;;;50.40;36.33;;;3.30;99.90;;;;;;4932498;28;20663;-83
2024/02/13 03:46:10;;;;;;;60.90;42.00;;;3.30;99.90;;;;;;4963753;28;20410;-78
2024/02/13 03:48:36;;;;;;;56.42;37.03;;;3.30;99.90;;;;;;4963931;28;20043;-79
2024/02/13 03:51:04;;;;;;;47.22;34.70;;;3.20;99.90;;;;;;4949301;28;20039;-75
2024/02/13 03:53:30;;;;;;;46.45;33.20;;;3.20;99.90;;;;;;4948016;28;20039;-83
2024/02/13 03:55:57;;;;;;;42.40;31.38;;;3.20;99.90;;;;;;4963471;28;20031;-78
2024/02/13 03:58:23;;;;;;;46.50;33.40;;;3.20;99.90;;;;;;4946799;28;20043;-78
2024/02/13 04:00:49;;;;;;;46.92;33.40;;;3.20;99.90;;;;;;4964765;28;20398;-81
2024/02/13 04:03:16;;;;;;;45.58;31.40;;;3.10;99.90;;;;;;4946042;28;20028;-78
2024/02/13 04:05:42;;;;;;;42.30;31.08;;;3.10;99.90;;;;;;4931744;29;20031;-82
2024/02/13 04:08:09;;;;;;;49.33;34.03;;;3.10;99.90;;;;;;4947376;28;20039;-79
2024/02/13 04:10:35;;;;;;;40.65;31.75;;;3.10;99.90;;;;;;4962711;28;20042;-81
2024/02/13 04:13:06;;;;;;;51.40;37.42;;;3.00;99.90;;;;;;4961809;28;20475;-79
2024/02/13 04:15:37;;;;;;;49.78;35.95;;;3.00;99.90;;;;;;4931407;28;20046;-81
2024/02/13 04:18:07;;;;;;;48.45;33.13;;;3.10;99.90;;;;;;4945658;28;20050;-79
2024/02/13 04:20:37;;;;;;;45.65;33.13;;;3.00;99.90;;;;;;4962269;28;20042;-79
2024/02/13 04:23:04;;;;;;;46.13;33.50;;;3.00;99.90;;;;;;4948616;28;20395;-80
2024/02/13 04:25:31;;;;;;;51.35;35.88;;;3.00;99.90;;;;;;4963411;28;20031;-83
2024/02/13 04:27:57;;;;;;;45.72;32.78;;;3.00;99.90;;;;;;4947089;28;20128;-80
2024/02/13 04:30:23;;;;;;;43.72;32.33;;;3.00;99.90;;;;;;4962798;28;20043;-82
2024/02/13 04:32:50;;;;;;;57.80;38.80;;;3.00;99.90;;;;;;4963153;28;20581;-82
2024/02/13 04:35:17;;;;;;;47.90;34.92;;;3.00;99.90;;;;;;4962881;28;20046;-82
2024/02/13 04:37:43;;;;;;;47.15;31.83;;;3.00;99.90;;;;;;4931752;28;20039;-83
2024/02/13 04:40:10;;;;;;;44.70;32.05;;;3.00;99.90;;;;;;4947362;28;20039;-78
2024/02/13 04:42:56;;;;;;;58.67;35.38;;;2.90;99.90;;;;;;4958634;28;20546;-80
2024/02/13 04:45:23;;;;;;;44.92;34.10;;;2.90;99.90;;;;;;4962375;28;20059;-81
2024/02/13 04:47:49;;;;;;;52.30;35.30;;;2.90;99.90;;;;;;4964295;28;20047;-78
2024/02/13 04:50:15;;;;;;;50.03;34.97;;;3.00;99.90;;;;;;4961951;28;20531;-79
2024/02/13 04:52:43;;;;;;;52.50;35.28;;;2.90;99.90;;;;;;4947022;28;20043;-82
2024/02/13 04:55:10;;;;;;;45.70;32.30;;;2.90;99.90;;;;;;4948262;28;20046;-83
2024/02/13 04:57:38;;;;;;;44.78;32.75;;;2.90;99.90;;;;;;4978205;28;20471;-83
2024/02/13 05:00:24;;;;;;;49.35;36.15;;;2.90;99.90;;;;;;4963463;28;20035;-80
2024/02/13 05:03:01;;;;;;;43.95;32.75;;;2.90;99.90;;;;;;4946383;28;20489;-81
2024/02/13 05:08:13;;;;;;;52.47;34.63;;;2.90;99.90;;;;;;4929834;28;20384;-82
2024/02/13 05:10:40;;;;;;;40.15;30.95;;;2.90;99.90;;;;;;4977356;28;20039;-79
2024/02/13 05:13:09;;;;;;;40.28;29.95;;;2.90;99.90;;;;;;4947897;28;20268;-81
2024/02/13 05:15:36;;;;;;;42.15;30.73;;;2.90;99.90;;;;;;4947660;28;20701;-83
2024/02/13 05:18:06;;;;;;;47.38;32.53;;;2.90;99.90;;;;;;4962307;28;20039;-79
2024/02/13 05:20:35;;;;;;;38.53;28.52;;;2.90;99.90;;;;;;4929822;28;20039;-79
2024/02/13 05:23:01;;;;;;;40.15;29.80;;;2.90;99.90;;;;;;4930041;28;20036;-79
2024/02/13 05:25:29;;;;;;;38.58;27.65;;;2.90;99.90;;;;;;4931073;28;20046;-80
2024/02/13 05:27:56;;;;;;;46.38;33.65;;;2.80;99.90;;;;;;4962386;28;20031;-83
2024/02/13 05:30:22;;;;;;;45.83;32.80;;;2.90;99.90;;;;;;4962873;28;20054;-75
2024/02/13 05:32:48;;;;;;;49.75;34.95;;;2.90;99.90;;;;;;4946249;28;20039;-77
2024/02/13 05:35:15;;;;;;;50.80;35.00;;;2.90;99.90;;;;;;4945677;28;20043;-79
2024/02/13 05:37:41;;;;;;;49.90;33.92;;;2.90;99.90;;;;;;4959258;28;20484;-78
2024/02/13 05:40:10;;;;;;;44.58;32.42;;;2.90;99.90;;;;;;4963782;28;20035;-83
2024/02/13 05:42:36;;;;;;;51.60;34.72;;;2.90;99.90;;;;;;4948018;28;20038;-83
2024/02/13 05:45:04;;;;;;;45.63;32.15;;;2.90;99.90;;;;;;4944613;28;20407;-82
2024/02/13 05:47:37;;;;;;;44.83;31.60;;;2.90;99.90;;;;;;4948179;28;20402;-80
2024/02/13 05:50:06;;;;;;;43.92;30.73;;;2.90;99.90;;;;;;4947626;28;20399;-80
2024/02/13 05:52:34;;;;;;;47.35;31.38;;;2.90;99.90;;;;;;4965001;28;20032;-79
2024/02/13 05:55:01;;;;;;;45.40;29.65;;;2.90;99.90;;;;;;4966428;28;20038;-79
2024/02/13 05:57:28;;;;;;;43.13;29.02;;;2.80;99.90;;;;;;4935221;28;20044;-80
2024/02/13 05:59:55;;;;;;;43.85;29.77;;;2.80;99.90;;;;;;4952345;28;20043;-77
2024/02/13 06:02:22;;;;;;;43.03;30.35;;;2.80;99.90;;;;;;4949764;28;20035;-83
2024/02/13 06:04:49;;;;;;;44.60;27.38;;;2.80;99.90;;;;;;4934160;28;20027;-83
2024/02/13 06:07:15;;;;;;;35.83;26.75;;;2.80;99.90;;;;;;4935164;28;20050;-81
2024/02/13 06:09:42;;;;;;;38.53;28.02;;;2.80;99.90;;;;;;4964016;28;20031;-78
2024/02/13 06:12:08;;;;;;;38.70;26.35;;;2.80;99.90;;;;;;4934664;28;20510;-83
2024/02/13 06:14:35;;;;;;;42.78;28.63;;;2.80;99.90;;;;;;4932855;28;20031;-76
2024/02/13 06:17:03;;;;;;;42.15;28.48;;;2.80;99.90;;;;;;4932094;28;20046;-80
2024/02/13 06:19:29;;;;;;;47.33;30.77;;;2.80;99.90;;;;;;4950624;28;20047;-81
2024/02/13 06:21:56;;;;;;;39.60;26.55;;;2.80;99.90;;;;;;4964488;28;20211;-80
2024/02/13 06:24:23;;;;;;;39.35;26.27;;;2.80;99.90;;;;;;4932400;28;20035;-81
2024/02/13 06:26:51;;;;;;;36.55;25.85;;;2.80;99.90;;;;;;4934494;28;20325;-75
2024/02/13 06:29:18;;;;;;;38.72;27.25;;;2.80;99.90;;;;;;4964377;28;20058;-84
2024/02/13 06:31:45;;;;;;;41.15;27.23;;;2.80;99.90;;;;;;4948292;28;20031;-82
2024/02/13 06:34:11;;;;;;;36.80;26.05;;;2.80;99.90;;;;;;4965684;28;20390;-83
2024/02/13 06:36:38;;;;;;;37.63;24.70;;;2.80;99.90;;;;;;4950689;28;20340;-83
2024/02/13 06:39:05;;;;;;;34.45;22.67;;;2.80;99.90;;;;;;4948307;28;20066;-83
2024/02/13 06:41:31;;;;;;;32.47;22.92;;;2.80;99.90;;;;;;4949505;28;20046;-80
2024/02/13 06:43:58;;;;;;;35.58;23.85;;;2.80;99.90;;;;;;4949140;28;20039;-79
2024/02/13 06:46:24;;;;;;;34.80;22.75;;;2.80;99.90;;;;;;4967325;28;20046;-81
2024/02/13 06:48:53;;;;;;;39.38;26.35;;;2.80;99.90;;;;;;4948225;28;20035;-82
2024/02/13 06:51:19;;;;;;;40.35;26.85;;;2.80;99.90;;;;;;4950384;28;20043;-75
2024/02/13 06:53:46;;;;;;;34.63;24.92;;;2.80;99.90;;;;;;4955253;28;20031;-82
2024/02/13 06:56:14;;;;;;;38.83;24.92;;;2.80;99.90;;;;;;4964167;28;20047;-83
2024/02/13 06:58:41;;;;;;;37.38;25.00;;;2.80;99.90;;;;;;4932970;28;20039;-82
2024/02/13 07:01:09;;;;;;;36.90;25.60;;;2.80;99.90;;;;;;4951694;28;20083;-81
2024/02/13 07:03:35;;;;;;;35.28;25.35;;;2.80;99.90;;;;;;4961739;28;20050;-84
2024/02/13 07:06:02;;;;;;;40.80;24.92;;;2.80;99.90;;;;;;4948732;28;20046;-82
2024/02/13 07:08:28;;;;;;;36.78;25.25;;;2.80;99.90;;;;;;4914882;28;20051;-81
2024/02/13 07:10:55;;;;;;;36.00;23.73;;;2.90;99.90;;;;;;4931892;28;20035;-82
2024/02/13 07:13:31;;;;;;;38.03;23.40;;;2.80;99.90;;;;;;4930723;28;20047;-76
2024/02/13 07:15:58;;;;;;;39.38;23.30;;;2.90;99.90;;;;;;4963478;28;20952;-82
2024/02/13 07:18:24;;;;;;;30.83;19.95;;;2.90;99.90;;;;;;4965572;28;20031;-80
2024/02/13 07:20:51;;;;;;;31.27;19.88;;;2.90;99.90;;;;;;4934685;28;20437;-83
2024/02/13 07:23:17;;;;;;;27.73;19.02;;;2.90;99.90;;;;;;4932768;28;20058;-79
2024/02/13 07:25:43;;;;;;;29.98;18.38;;;2.90;99.90;;;;;;4946474;28;20033;-78
2024/02/13 07:28:10;;;;;;;27.05;17.98;;;2.90;99.90;;;;;;4963121;28;20035;-80
2024/02/13 07:30:37;;;;;;;29.80;19.67;;;2.90;99.90;;;;;;4962228;28;20034;-81
2024/02/13 07:33:03;;;;;;;34.95;22.42;;;3.00;99.90;;;;;;4948099;28;20050;-81
2024/02/13 07:35:30;;;;;;;36.40;21.02;;;3.10;99.90;;;;;;4963756;28;20031;-74
2024/02/13 07:38:01;;;;;;;32.70;19.42;;;3.10;99.90;;;;;;4959629;28;20211;-80
2024/02/13 07:40:28;;;;;;;35.03;20.50;;;3.20;99.90;;;;;;4946517;28;20043;-76
2024/02/13 07:42:54;;;;;;;33.92;19.90;;;3.30;99.90;;;;;;4931450;28;20039;-81
2024/02/13 07:45:21;;;;;;;31.50;18.88;;;3.30;99.90;;;;;;4946053;28;20051;-79
2024/02/13 07:48:01;;;;;;;36.88;21.27;;;3.30;99.90;;;;;;4933809;28;20532;-78
2024/02/13 07:50:28;;;;;;;32.42;18.73;;;3.40;99.90;;;;;;4978237;28;20043;-81
2024/02/13 07:52:55;;;;;;;30.23;19.92;;;3.50;99.90;;;;;;4931477;28;20700;-81
2024/02/13 07:55:22;;;;;;;33.63;19.35;;;3.50;99.90;;;;;;4931301;28;20521;-79
2024/02/13 07:57:50;;;;;;;37.45;21.60;;;3.60;99.90;;;;;;4919012;28;20057;-81
2024/02/13 08:00:20;;;;;;;31.95;18.63;;;3.70;99.90;;;;;;4929652;28;20031;-78
2024/02/13 08:02:49;;;;;;;24.08;16.40;;;3.80;99.90;;;;;;4945092;28;20486;-77
2024/02/13 08:05:15;;;;;;;27.83;15.73;;;3.80;99.90;;;;;;4961302;28;20023;-76
2024/02/13 08:07:41;;;;;;;32.30;18.08;;;3.80;99.90;;;;;;4962039;28;20794;-79
2024/02/13 08:10:11;;;;;;;25.10;17.27;;;3.90;99.90;;;;;;4945669;28;20520;-81
2024/02/13 08:12:37;;;;;;;26.83;16.13;;;3.90;99.90;;;;;;4944767;28;20050;-78
2024/02/13 08:15:04;;;;;;;26.40;15.73;;;3.90;99.90;;;;;;4931933;28;20043;-85
2024/02/13 08:17:31;;;;;;;26.38;16.08;;;3.90;99.90;;;;;;4961621;28;20043;-79
2024/02/13 08:19:59;;;;;;;21.20;15.23;;;4.00;99.90;;;;;;4948450;28;20611;-75
2024/02/13 08:22:25;;;;;;;30.23;14.73;;;4.10;99.90;;;;;;4963564;28;20039;-81
2024/02/13 08:24:51;;;;;;;23.63;15.88;;;4.10;99.90;;;;;;4931265;28;20054;-76
2024/02/13 08:27:18;;;;;;;28.05;17.27;;;4.10;99.90;;;;;;4963764;28;20038;-76
2024/02/13 08:29:45;;;;;;;26.50;17.50;;;4.20;99.90;;;;;;4948595;28;20038;-81
2024/02/13 08:32:11;;;;;;;29.75;14.30;;;4.30;99.90;;;;;;4961268;28;20042;-80
2024/02/13 08:34:38;;;;;;;21.75;14.50;;;4.40;99.90;;;;;;4946965;28;20325;-78
2024/02/13 08:37:05;;;;;;;28.42;15.95;;;4.40;99.90;;;;;;4961790;28;20031;-79
2024/02/13 08:39:31;;;;;;;24.75;15.60;;;4.50;99.90;;;;;;4933407;28;20031;-80
2024/02/13 08:42:00;;;;;;;27.80;16.45;;;4.60;99.90;;;;;;4948871;28;20399;-78
2024/02/13 08:44:26;;;;;;;22.33;15.30;;;4.60;99.90;;;;;;4945148;28;20031;-80
2024/02/13 08:46:53;;;;;;;23.40;14.02;;;4.70;99.90;;;;;;4947316;28;20395;-79
2024/02/13 08:49:20;;;;;;;23.58;14.23;;;4.80;99.90;;;;;;4961591;28;20042;-75
2024/02/13 08:51:46;;;;;;;21.60;12.50;;;4.90;99.90;;;;;;4931848;28;20452;-79
2024/02/13 08:54:12;;;;;;;27.02;12.98;;;5.00;99.90;;;;;;4947777;28;20623;-79
2024/02/13 08:56:39;;;;;;;23.15;13.07;;;5.10;99.90;;;;;;4945758;28;20479;-78
2024/02/13 08:59:08;;;;;;;22.42;12.45;;;5.10;99.90;;;;;;4945515;28;20050;-73
2024/02/13 09:01:34;;;;;;;21.33;12.82;;;5.20;99.90;;;;;;4931287;28;20545;-76
2024/02/13 09:04:01;;;;;;;24.88;14.23;;;5.20;99.90;;;;;;4930757;28;20418;-77
2024/02/13 09:06:28;;;;;;;25.73;12.18;;;5.20;99.90;;;;;;4946897;28;20050;-74
2024/02/13 09:08:54;;;;;;;22.85;11.95;;;5.20;99.90;;;;;;4929826;28;20785;-75
2024/02/13 09:11:21;;;;;;;17.23;10.32;;;5.20;99.90;;;;;;4925669;28;20114;-77
2024/02/13 09:13:48;;;;;;;22.10;10.40;;;5.20;99.90;;;;;;4943544;28;20047;-74
2024/02/13 09:16:14;;;;;;;20.05;10.75;;;5.20;99.90;;;;;;4948645;28;21613;-74
2024/02/13 09:18:42;;;;;;;22.15;10.93;;;5.20;99.90;;;;;;4944366;28;20047;-77
2024/02/13 09:21:09;;;;;;;22.52;10.32;;;5.30;99.90;;;;;;4928933;28;20055;-77
2024/02/13 09:23:36;;;;;;;19.17;11.07;;;5.40;99.90;;;;;;4962549;28;20394;-75
2024/02/13 09:26:03;;;;;;;21.80;11.45;;;5.50;99.90;;;;;;4966197;28;20396;-77
2024/02/13 09:28:31;;;;;;;17.02;10.85;;;5.60;99.90;;;;;;4963182;28;20470;-78
2024/02/13 09:30:58;;;;;;;20.73;9.82;;;5.70;99.90;;;;;;4933782;28;20027;-78
2024/02/13 09:33:24;;;;;;;18.75;10.30;;;5.70;99.90;;;;;;4965045;28;20043;-78
2024/02/13 09:35:51;;;;;;;22.10;10.90;;;5.90;99.90;;;;;;4934987;28;20042;-78
2024/02/13 09:38:18;;;;;;;18.35;9.43;;;6.00;99.90;;;;;;4935589;28;20042;-77
2024/02/13 09:40:47;;;;;;;19.63;10.48;;;6.10;99.90;;;;;;4949464;28;20046;-78
2024/02/13 09:43:14;;;;;;;15.40;9.40;;;6.20;99.90;;;;;;4950960;28;20031;-78
2024/02/13 09:45:42;;;;;;;17.98;9.20;;;6.30;99.90;;;;;;4950615;28;20035;-75
2024/02/13 09:48:20;;;;;;;16.80;9.25;;;6.40;99.90;;;;;;4950816;28;20039;-77
2024/02/13 09:50:52;;;;;;;28.42;14.27;;;6.60;99.90;;;;;;4948429;28;20046;-78
2024/02/13 09:53:28;;;;;;;26.23;10.38;;;6.70;99.90;;;;;;4949492;28;20035;-83
2024/02/13 09:55:58;;;;;;;17.33;9.85;;;6.70;99.90;;;;;;4964043;28;20039;-78
2024/02/13 09:58:29;;;;;;;15.77;8.43;;;6.80;99.90;;;;;;4933874;28;20039;-76
2024/02/13 10:00:57;;;;;;;14.75;7.95;;;6.80;99.90;;;;;;4961745;28;20043;-77
2024/02/13 10:03:23;;;;;;;16.63;7.90;;;6.80;99.90;;;;;;4931737;28;20035;-77
2024/02/13 10:05:49;;;;;;;16.98;7.85;;;6.90;99.90;;;;;;4951991;28;20035;-77
2024/02/13 10:08:17;;;;;;;15.85;7.55;;;7.00;99.90;;;;;;4932699;28;20483;-74
2024/02/13 10:10:44;;;;;;;21.45;8.18;;;7.10;99.90;;;;;;4947610;28;20412;-74
2024/02/13 10:13:12;;;;;;;14.15;7.75;;;7.20;99.90;;;;;;4947741;28;20517;-78
2024/02/13 10:15:43;;;;;;;19.05;7.38;;;7.30;99.90;;;;;;4963360;28;20028;-73
2024/02/13 10:18:11;;;;;;;13.35;6.40;;;7.40;99.90;;;;;;4951061;28;20391;-79
2024/02/13 10:20:39;;;;;;;16.15;6.03;;;7.40;99.90;;;;;;4932984;28;20371;-79
2024/02/13 10:23:06;;;;;;;16.33;7.68;;;7.40;99.90;;;;;;4963204;28;20019;-74
2024/02/13 10:25:34;;;;;;;14.73;6.35;;;7.40;99.90;;;;;;4964878;28;20050;-79
2024/02/13 10:28:02;;;;;;;9.60;5.80;;;7.60;99.90;;;;;;4932089;28;20046;-78
2024/02/13 10:30:29;;;;;;;13.88;5.80;;;8.00;99.90;;;;;;4945773;28;20028;-73
2024/02/13 10:33:01;;;;;;;10.60;4.93;;;8.40;99.90;;;;;;4948665;28;20043;-78
2024/02/13 10:35:30;;;;;;;8.45;3.88;;;8.80;99.90;;;;;;4962610;28;20035;-80
2024/02/13 10:37:57;;;;;;;8.93;3.92;;;9.20;99.90;;;;;;4931402;28;20039;-78
2024/02/13 10:40:28;;;;;;;4.95;2.80;;;9.60;99.90;;;;;;4963841;28;20407;-79
2024/02/13 10:42:56;;;;;;;10.65;3.40;;;10.00;99.90;;;;;;4964566;28;20054;-77
2024/02/13 10:45:25;;;;;;;7.65;3.20;;;10.40;99.90;;;;;;4935922;28;20046;-76
2024/02/13 10:48:30;;;;;;;8.98;3.67;;;10.60;99.90;;;;;;4934132;28;20474;-78
2024/02/13 10:50:58;;;;;;;6.22;2.50;;;10.80;99.90;;;;;;4931275;28;20036;-75
2024/02/13 10:53:26;;;;;;;6.18;3.13;;;11.00;99.90;;;;;;4945090;28;20027;-77
2024/02/13 10:55:53;;;;;;;6.22;2.13;;;11.30;99.90;;;;;;4949486;28;20038;-74
2024/02/13 10:58:22;;;;;;;5.45;2.03;;;11.60;99.90;;;;;;4930730;28;20047;-76
2024/02/13 11:00:54;;;;;;;6.10;2.40;;;11.80;99.90;;;;;;4962011;28;20499;-76
2024/02/13 11:03:22;;;;;;;;;;;11.80;99.90;;;;;;4962653;28;20792;-75
2024/02/13 11:05:49;;;;;;;10.55;2.90;;;11.70;99.90;;;;;;4962388;28;20418;-75
2024/02/13 11:08:16;;;;;;;6.72;2.70;;;11.60;99.90;;;;;;4961649;28;20039;-76
2024/02/13 11:10:42;;;;;;;7.93;3.00;;;11.50;99.90;;;;;;4977324;28;20673;-74
2024/02/13 11:13:09;;;;;;;8.38;2.80;;;11.30;99.90;;;;;;4962870;28;20035;-77
2024/02/13 11:15:39;;;;;;;8.55;2.85;;;11.20;99.90;;;;;;4961244;28;20368;-76
2024/02/13 11:18:18;;;;;;;9.27;2.93;;;10.90;99.90;;;;;;4931510;28;20047;-78
2024/02/13 11:20:50;;;;;;;7.68;3.22;;;10.60;99.90;;;;;;4932145;28;20291;-77
2024/02/13 11:23:37;;;;;;;12.45;4.03;;;10.40;99.90;;;;;;4956993;28;20035;-77
2024/02/13 11:26:04;;;;;;;9.80;3.17;;;10.20;99.90;;;;;;4962644;28;20046;-82
2024/02/13 11:28:38;;;;;;;7.95;3.05;;;10.10;99.90;;;;;;4932456;28;20039;-77
2024/02/13 11:31:15;;;;;;;5.82;2.55;;;10.10;99.90;;;;;;4945614;28;20059;-78
2024/02/13 11:34:04;;;;;;;9.77;3.75;;;10.20;99.90;;;;;;4961040;28;20050;-76
2024/02/13 11:36:35;;;;;;;8.25;3.55;;;10.30;99.90;;;;;;4961516;28;20042;-78
2024/02/13 11:39:07;;;;;;;7.00;2.40;;;10.40;99.90;;;;;;4945806;28;20049;-74
2024/02/13 11:41:34;;;;;;;;;;;10.40;99.90;;;;;;4947077;28;20034;-79
2024/02/13 11:44:20;;;;;;;8.35;3.05;;;10.50;99.90;;;;;;4947637;28;19915;-77
2024/02/13 11:46:52;;;;;;;8.90;3.42;;;10.50;99.90;;;;;;4960985;28;20066;-79
2024/02/13 11:49:19;;;;;;;8.23;3.63;;;10.50;99.90;;;;;;4963710;28;20035;-78
2024/02/13 11:51:46;;;;;;;7.78;2.75;;;10.50;99.90;;;;;;4933216;28;20035;-75
2024/02/13 11:54:13;;;;;;;5.10;2.75;;;10.50;99.90;;;;;;4964293;28;20042;-80
2024/02/13 11:56:39;;;;;;;8.02;3.10;;;10.50;99.90;;;;;;4959978;28;20042;-75
2024/02/13 11:59:06;;;;;;;7.03;2.55;;;10.60;99.90;;;;;;4961993;28;20034;-77
2024/02/13 12:01:36;;;;;;;7.45;3.08;;;10.60;99.90;;;;;;4946131;28;20031;-77
2024/02/13 12:04:11;;;;;;;12.25;2.35;;;10.70;99.90;;;;;;4930713;28;20410;-79
2024/02/13 12:06:39;;;;;;;7.97;2.65;;;10.70;99.90;;;;;;4930821;28;20054;-78
2024/02/13 12:09:07;;;;;;;8.13;2.38;;;10.70;99.90;;;;;;4961707;28;20035;-77
2024/02/13 12:11:36;;;;;;;9.25;2.65;;;10.70;99.90;;;;;;4945281;28;20046;-78
2024/02/13 12:14:03;;;;;;;10.23;2.83;;;10.70;99.90;;;;;;4941115;28;20047;-76
2024/02/13 12:16:32;;;;;;;8.90;2.65;;;10.60;99.90;;;;;;4960591;28;20516;-80
2024/02/13 12:18:59;;;;;;;3.75;2.00;;;10.50;99.90;;;;;;4960068;28;20047;-74
2024/02/13 12:21:26;;;;;;;7.18;3.28;;;10.40;99.90;;;;;;4946348;28;20035;-77
2024/02/13 12:23:53;;;;;;;6.65;2.92;;;10.30;99.90;;;;;;4963442;28;20047;-77
2024/02/13 12:26:20;;;;;;;7.63;3.75;;;10.30;99.90;;;;;;4962676;28;20023;-77
2024/02/13 12:28:57;;;;;;;12.05;3.85;;;10.20;99.90;;;;;;4944715;28;20487;-77
2024/02/13 12:31:27;;;;;;;8.07;3.63;;;10.40;99.90;;;;;;4945646;28;20130;-77
2024/02/13 12:34:06;;;;;;;5.95;2.97;;;10.50;99.90;;;;;;4961431;28;20043;-75
2024/02/13 12:36:33;;;;;;;7.38;2.33;;;10.60;99.90;;;;;;4930918;28;20043;-76
2024/02/13 12:39:20;;;;;;;6.28;2.00;;;10.70;99.90;;;;;;4960903;28;20157;-76
2024/02/13 12:41:49;;;;;;;8.00;2.50;;;10.80;99.90;;;;;;4961271;28;20027;-74
2024/02/13 12:44:15;;;;;;;6.45;1.95;;;10.70;99.90;;;;;;4965063;28;20811;-76
2024/02/13 12:46:42;;;;;;;6.85;1.55;;;10.70;99.90;;;;;;4932236;28;20183;-78
2024/02/13 12:49:10;;;;;;;8.90;2.90;;;10.70;99.90;;;;;;4949913;28;20364;-74